sensor_id;sensor_type;location;lat;lon;timestamp;pressure;altitude;pressure_sealevel;temperature;humidity
45357;BME280;31092;51.924;21.448;2023-04-09T00:01:09;100962.88;;;6.82;100.00
45357;BME280;31092;51.924;21.448;2023-04-09T00:03:36;100902.06;;;6.50;100.00
45357;BME280;31092;51.924;21.448;2023-04-09T00:06:02;100833.25;;;6.07;100.00
45357;BME280;31092;51.924;21.448;2023-04-09T00:08:28;100935.03;;;6.73;100.00
45357;BME280;31092;51.924;21.448;2023-04-09T00:10:54;100854.41;;;6.21;100.00
45357;BME280;31092;51.924;21.448;2023-04-09T00:13:21;100937.94;;;6.70;100.00
45357;BME280;31092;51.924;21.448;2023-04-09T00:15:46;100885.91;;;6.40;100.00
45357;BME280;31092;51.924;21.448;2023-04-09T00:18:13;100950.56;;;6.79;100.00
45357;BME280;31092;51.924;21.448;2023-04-09T00:20:39;100961.88;;;6.83;100.00
45357;BME280;31092;51.924;21.448;2023-04-09T00:23:04;100943.41;;;6.68;100.00
45357;BME280;31092;51.924;21.448;2023-04-09T00:25:30;100933.06;;;6.64;100.00
45357;BME280;31092;51.924;21.448;2023-04-09T00:27:56;100859.91;;;6.20;100.00
45357;BME280;31092;51.924;21.448;2023-04-09T00:30:21;100963.47;;;6.85;100.00
45357;BME280;31092;51.924;21.448;2023-04-09T00:32:47;100908.03;;;6.54;100.00
45357;BME280;31092;51.924;21.448;2023-04-09T00:35:13;100873.13;;;6.33;100.00
45357;BME280;31092;51.924;21.448;2023-04-09T00:37:38;100919.94;;;6.61;100.00
45357;BME280;31092;51.924;21.448;2023-04-09T00:40:05;100876.69;;;6.33;100.00
45357;BME280;31092;51.924;21.448;2023-04-09T00:42:34;100940.25;;;6.75;100.00
45357;BME280;31092;51.924;21.448;2023-04-09T00:45:02;100870.09;;;6.26;100.00
45357;BME280;31092;51.924;21.448;2023-04-09T00:47:28;100923.59;;;6.60;100.00
45357;BME280;31092;51.924;21.448;2023-04-09T00:49:55;100885.31;;;6.37;100.00
45357;BME280;31092;51.924;21.448;2023-04-09T00:52:22;100974.06;;;6.87;100.00
45357;BME280;31092;51.924;21.448;2023-04-09T00:54:49;100908.25;;;6.51;100.00
45357;BME280;31092;51.924;21.448;2023-04-09T00:57:15;100870.22;;;6.24;100.00
45357;BME280;31092;51.924;21.448;2023-04-09T00:59:41;100951.94;;;6.74;100.00
45357;BME280;31092;51.924;21.448;2023-04-09T01:02:07;100868.63;;;6.22;100.00
45357;BME280;31092;51.924;21.448;2023-04-09T01:04:33;100975.66;;;6.78;100.00
45357;BME280;31092;51.924;21.448;2023-04-09T01:13:06;100964.22;;;6.76;100.00
45357;BME280;31092;51.924;21.448;2023-04-09T01:15:38;100948.03;;;6.66;100.00
45357;BME280;31092;51.924;21.448;2023-04-09T01:18:14;100879.84;;;6.27;100.00
45357;BME280;31092;51.924;21.448;2023-04-09T01:21:05;100963.72;;;6.71;100.00
45357;BME280;31092;51.924;21.448;2023-04-09T01:23:46;100964.94;;;6.78;100.00
45357;BME280;31092;51.924;21.448;2023-04-09T01:26:48;100934.06;;;6.63;100.00
45357;BME280;31092;51.924;21.448;2023-04-09T01:29:19;100944.53;;;6.66;100.00
45357;BME280;31092;51.924;21.448;2023-04-09T01:31:46;100947.31;;;6.64;100.00
45357;BME280;31092;51.924;21.448;2023-04-09T01:34:13;100975.28;;;6.71;100.00
45357;BME280;31092;51.924;21.448;2023-04-09T01:36:42;100969.22;;;6.69;100.00
45357;BME280;31092;51.924;21.448;2023-04-09T01:39:09;100971.53;;;6.63;100.00
45357;BME280;31092;51.924;21.448;2023-04-09T01:41:34;100891.63;;;6.24;100.00
45357;BME280;31092;51.924;21.448;2023-04-09T01:44:02;100952.66;;;6.64;100.00
45357;BME280;31092;51.924;21.448;2023-04-09T01:46:28;100889.19;;;6.21;100.00
45357;BME280;31092;51.924;21.448;2023-04-09T01:48:54;100974.19;;;6.74;100.00
45357;BME280;31092;51.924;21.448;2023-04-09T01:51:21;100952.91;;;6.61;100.00
45357;BME280;31092;51.924;21.448;2023-04-09T01:53:47;100934.31;;;6.48;100.00
45357;BME280;31092;51.924;21.448;2023-04-09T01:56:13;100958.75;;;6.66;100.00
45357;BME280;31092;51.924;21.448;2023-04-09T01:58:39;100870.69;;;6.18;100.00
45357;BME280;31092;51.924;21.448;2023-04-09T02:01:25;100964.22;;;6.76;100.00
45357;BME280;31092;51.924;21.448;2023-04-09T02:03:55;100917.41;;;6.48;100.00
45357;BME280;31092;51.924;21.448;2023-04-09T02:09:03;100974.19;;;6.74;100.00
45357;BME280;31092;51.924;21.448;2023-04-09T02:11:32;100910.25;;;6.37;100.00
45357;BME280;31092;51.924;21.448;2023-04-09T02:13:59;100963.63;;;6.72;100.00
45357;BME280;31092;51.924;21.448;2023-04-09T02:16:25;100966.16;;;6.74;100.00
45357;BME280;31092;51.924;21.448;2023-04-09T02:18:55;100903.44;;;6.33;100.00
45357;BME280;31092;51.924;21.448;2023-04-09T02:21:26;100887.25;;;6.23;100.00
45357;BME280;31092;51.924;21.448;2023-04-09T02:23:52;100894.91;;;6.28;100.00
45357;BME280;31092;51.924;21.448;2023-04-09T02:26:19;100958.84;;;6.65;100.00
45357;BME280;31092;51.924;21.448;2023-04-09T02:28:44;100971.53;;;6.63;100.00
45357;BME280;31092;51.924;21.448;2023-04-09T02:31:10;100907.91;;;6.33;100.00
45357;BME280;31092;51.924;21.448;2023-04-09T02:33:35;100887.13;;;6.25;100.00
45357;BME280;31092;51.924;21.448;2023-04-09T02:36:01;100865.00;;;6.12;100.00
45357;BME280;31092;51.924;21.448;2023-04-09T02:38:26;100894.44;;;6.23;100.00
45357;BME280;31092;51.924;21.448;2023-04-09T02:40:52;100885.53;;;6.22;100.00
45357;BME280;31092;51.924;21.448;2023-04-09T02:43:17;100953.88;;;6.60;100.00
45357;BME280;31092;51.924;21.448;2023-04-09T02:45:43;100938.91;;;6.58;100.00
45357;BME280;31092;51.924;21.448;2023-04-09T02:48:08;100845.31;;;6.02;100.00
45357;BME280;31092;51.924;21.448;2023-04-09T02:50:34;100860.75;;;6.09;100.00
45357;BME280;31092;51.924;21.448;2023-04-09T02:52:59;100837.13;;;5.92;100.00
45357;BME280;31092;51.924;21.448;2023-04-09T02:55:25;100893.44;;;6.24;100.00
45357;BME280;31092;51.924;21.448;2023-04-09T02:57:50;100942.72;;;6.55;100.00
45357;BME280;31092;51.924;21.448;2023-04-09T03:00:16;100867.19;;;6.07;100.00
45357;BME280;31092;51.924;21.448;2023-04-09T03:02:41;100929.69;;;6.39;100.00
45357;BME280;31092;51.924;21.448;2023-04-09T03:05:07;100841.75;;;5.90;100.00
45357;BME280;31092;51.924;21.448;2023-04-09T03:07:32;100859.16;;;5.95;100.00
45357;BME280;31092;51.924;21.448;2023-04-09T03:09:58;100858.78;;;6.00;100.00
45357;BME280;31092;51.924;21.448;2023-04-09T03:12:23;100911.09;;;6.27;100.00
45357;BME280;31092;51.924;21.448;2023-04-09T03:14:49;100884.59;;;6.12;100.00
45357;BME280;31092;51.924;21.448;2023-04-09T03:17:14;100945.63;;;6.41;100.00
45357;BME280;31092;51.924;21.448;2023-04-09T03:19:40;100848.06;;;5.89;100.00
45357;BME280;31092;51.924;21.448;2023-04-09T03:22:05;100935.88;;;6.40;100.00
45357;BME280;31092;51.924;21.448;2023-04-09T03:24:32;100951.09;;;6.51;100.00
45357;BME280;31092;51.924;21.448;2023-04-09T03:26:57;100877.03;;;6.06;100.00
45357;BME280;31092;51.924;21.448;2023-04-09T03:29:23;100935.16;;;6.38;100.00
45357;BME280;31092;51.924;21.448;2023-04-09T03:31:48;100894.31;;;6.13;100.00
45357;BME280;31092;51.924;21.448;2023-04-09T03:34:14;100836.16;;;5.82;100.00
45357;BME280;31092;51.924;21.448;2023-04-09T03:36:40;100888.09;;;6.13;100.00
45357;BME280;31092;51.924;21.448;2023-04-09T03:39:05;100937.00;;;6.48;100.00
45357;BME280;31092;51.924;21.448;2023-04-09T03:41:31;100942.81;;;6.54;100.00
45357;BME280;31092;51.924;21.448;2023-04-09T03:43:56;100861.69;;;6.08;100.00
45357;BME280;31092;51.924;21.448;2023-04-09T03:46:22;100936.22;;;6.58;100.00
45357;BME280;31092;51.924;21.448;2023-04-09T03:48:47;100891.00;;;6.32;100.00
45357;BME280;31092;51.924;21.448;2023-04-09T03:51:14;100859.41;;;6.15;100.00
45357;BME280;31092;51.924;21.448;2023-04-09T03:53:41;100847.84;;;6.03;100.00
45357;BME280;31092;51.924;21.448;2023-04-09T03:56:07;100904.88;;;6.37;100.00
45357;BME280;31092;51.924;21.448;2023-04-09T03:58:33;100963.59;;;6.61;100.00
45357;BME280;31092;51.924;21.448;2023-04-09T04:01:00;100850.91;;;5.98;100.00
45357;BME280;31092;51.924;21.448;2023-04-09T04:03:26;100948.91;;;6.56;100.00
45357;BME280;31092;51.924;21.448;2023-04-09T04:05:51;100938.06;;;6.46;100.00
45357;BME280;31092;51.924;21.448;2023-04-09T04:08:17;100932.00;;;6.44;100.00
45357;BME280;31092;51.924;21.448;2023-04-09T04:10:42;100959.13;;;6.62;100.00
45357;BME280;31092;51.924;21.448;2023-04-09T04:13:08;100846.28;;;6.00;100.00
45357;BME280;31092;51.924;21.448;2023-04-09T04:15:40;100841.53;;;5.93;100.00
45357;BME280;31092;51.924;21.448;2023-04-09T04:18:06;100857.47;;;6.06;100.00
45357;BME280;31092;51.924;21.448;2023-04-09T04:20:32;100951.09;;;6.62;100.00
45357;BME280;31092;51.924;21.448;2023-04-09T04:22:58;100963.13;;;6.67;100.00
45357;BME280;31092;51.924;21.448;2023-04-09T04:25:24;100898.94;;;6.34;100.00
45357;BME280;31092;51.924;21.448;2023-04-09T04:27:49;100950.81;;;6.65;100.00
45357;BME280;31092;51.924;21.448;2023-04-09T04:30:15;100967.00;;;6.75;100.00
45357;BME280;31092;51.924;21.448;2023-04-09T04:32:40;100952.66;;;6.64;100.00
45357;BME280;31092;51.924;21.448;2023-04-09T04:35:06;100897.22;;;6.33;100.00
45357;BME280;31092;51.924;21.448;2023-04-09T04:37:32;100876.91;;;6.19;100.00
45357;BME280;31092;51.924;21.448;2023-04-09T04:40:00;100917.88;;;6.42;100.00
45357;BME280;31092;51.924;21.448;2023-04-09T04:42:25;100892.97;;;6.30;100.00
45357;BME280;31092;51.924;21.448;2023-04-09T04:44:51;100966.41;;;6.71;100.00
45357;BME280;31092;51.924;21.448;2023-04-09T04:47:16;100877.25;;;6.26;100.00
45357;BME280;31092;51.924;21.448;2023-04-09T04:49:43;100859.91;;;6.20;100.00
45357;BME280;31092;51.924;21.448;2023-04-09T04:52:09;100940.88;;;6.67;100.00
45357;BME280;31092;51.924;21.448;2023-04-09T04:54:35;100871.44;;;6.20;100.00
45357;BME280;31092;51.924;21.448;2023-04-09T04:57:00;100874.34;;;6.29;100.00
45357;BME280;31092;51.924;21.448;2023-04-09T04:59:26;100861.22;;;6.26;100.00
45357;BME280;31092;51.924;21.448;2023-04-09T05:01:51;100939.75;;;6.81;100.00
45357;BME280;31092;51.924;21.448;2023-04-09T05:04:17;100899.50;;;6.60;100.00
45357;BME280;31092;51.924;21.448;2023-04-09T05:06:42;100934.63;;;6.89;100.00
45357;BME280;31092;51.924;21.448;2023-04-09T05:09:08;100935.81;;;6.96;100.00
45357;BME280;31092;51.924;21.448;2023-04-09T05:11:33;100946.28;;;6.99;100.00
45357;BME280;31092;51.924;21.448;2023-04-09T05:13:59;100903.34;;;6.78;100.00
45357;BME280;31092;51.924;21.448;2023-04-09T05:16:25;100978.72;;;7.28;100.00
45357;BME280;31092;51.924;21.448;2023-04-09T05:18:51;100942.47;;;7.13;100.00
45357;BME280;31092;51.924;21.448;2023-04-09T05:21:16;100977.81;;;7.39;100.00
45357;BME280;31092;51.924;21.448;2023-04-09T05:23:42;100894.78;;;6.95;100.00
45357;BME280;31092;51.924;21.448;2023-04-09T05:26:07;100879.13;;;6.91;100.00
45357;BME280;31092;51.924;21.448;2023-04-09T05:28:33;100890.50;;;7.04;100.00
45357;BME280;31092;51.924;21.448;2023-04-09T05:30:58;100900.59;;;7.12;100.00
45357;BME280;31092;51.924;21.448;2023-04-09T05:33:24;100892.88;;;7.18;100.00
45357;BME280;31092;51.924;21.448;2023-04-09T05:35:50;100894.94;;;7.26;100.00
45357;BME280;31092;51.924;21.448;2023-04-09T05:38:16;100951.78;;;7.62;100.00
45357;BME280;31092;51.924;21.448;2023-04-09T05:40:41;100974.47;;;7.79;100.00
45357;BME280;31092;51.924;21.448;2023-04-09T05:43:08;100971.19;;;7.75;100.00
45357;BME280;31092;51.924;21.448;2023-04-09T05:45:34;100964.28;;;7.73;100.00
45357;BME280;31092;51.924;21.448;2023-04-09T05:48:00;100893.19;;;7.36;100.00
45357;BME280;31092;51.924;21.448;2023-04-09T05:50:25;100953.81;;;7.70;100.00
45357;BME280;31092;51.924;21.448;2023-04-09T05:52:51;100911.63;;;7.51;100.00
45357;BME280;31092;51.924;21.448;2023-04-09T05:55:17;100911.50;;;7.52;100.00
45357;BME280;31092;51.924;21.448;2023-04-09T05:57:42;100936.34;;;7.75;100.00
45357;BME280;31092;51.924;21.448;2023-04-09T06:00:10;100914.97;;;7.64;100.00
45357;BME280;31092;51.924;21.448;2023-04-09T06:02:35;100910.78;;;7.71;100.00
45357;BME280;31092;51.924;21.448;2023-04-09T06:05:01;100971.03;;;8.09;100.00
45357;BME280;31092;51.924;21.448;2023-04-09T06:07:27;100922.31;;;7.83;100.00
45357;BME280;31092;51.924;21.448;2023-04-09T06:09:54;100944.13;;;7.99;100.00
45357;BME280;31092;51.924;21.448;2023-04-09T06:12:19;100956.94;;;8.16;100.00
45357;BME280;31092;51.924;21.448;2023-04-09T06:14:47;100903.13;;;7.87;100.00
45357;BME280;31092;51.924;21.448;2023-04-09T06:17:12;100907.25;;;7.91;100.00
45357;BME280;31092;51.924;21.448;2023-04-09T06:19:38;100925.22;;;8.01;100.00
45357;BME280;31092;51.924;21.448;2023-04-09T06:22:04;100984.88;;;8.35;100.00
45357;BME280;31092;51.924;21.448;2023-04-09T06:24:30;101004.66;;;8.55;100.00
45357;BME280;31092;51.924;21.448;2023-04-09T06:26:56;101005.22;;;8.58;100.00
45357;BME280;31092;51.924;21.448;2023-04-09T06:29:22;101001.28;;;8.62;100.00
45357;BME280;31092;51.924;21.448;2023-04-09T06:31:47;100992.25;;;8.63;100.00
45357;BME280;31092;51.924;21.448;2023-04-09T06:34:13;100923.13;;;8.35;100.00
45357;BME280;31092;51.924;21.448;2023-04-09T06:36:39;100987.22;;;8.80;100.00
45357;BME280;31092;51.924;21.448;2023-04-09T06:39:05;100920.25;;;8.48;100.00
45357;BME280;31092;51.924;21.448;2023-04-09T06:41:31;100997.91;;;9.01;100.00
45357;BME280;31092;51.924;21.448;2023-04-09T06:43:57;100998.22;;;9.07;100.00
45357;BME280;31092;51.924;21.448;2023-04-09T06:46:23;100923.72;;;8.69;100.00
45357;BME280;31092;51.924;21.448;2023-04-09T06:48:48;100914.25;;;8.75;100.00
45357;BME280;31092;51.924;21.448;2023-04-09T06:51:14;100931.53;;;8.92;100.00
45357;BME280;31092;51.924;21.448;2023-04-09T06:53:39;100976.56;;;9.28;100.00
45357;BME280;31092;51.924;21.448;2023-04-09T06:56:06;100917.28;;;9.01;100.00
45357;BME280;31092;51.924;21.448;2023-04-09T06:58:31;100978.72;;;9.64;100.00
45357;BME280;31092;51.924;21.448;2023-04-09T07:00:57;100919.88;;;9.51;100.00
45357;BME280;31092;51.924;21.448;2023-04-09T07:03:23;100897.91;;;9.55;100.00
45357;BME280;31092;51.924;21.448;2023-04-09T07:05:48;100927.44;;;9.84;100.00
45357;BME280;31092;51.924;21.448;2023-04-09T07:08:14;100923.47;;;9.89;100.00
45357;BME280;31092;51.924;21.448;2023-04-09T07:10:40;100982.91;;;10.24;100.00
45357;BME280;31092;51.924;21.448;2023-04-09T07:13:06;100967.63;;;10.15;100.00
45357;BME280;31092;51.924;21.448;2023-04-09T07:15:32;100993.28;;;10.29;100.00
45357;BME280;31092;51.924;21.448;2023-04-09T07:17:58;100990.88;;;10.36;100.00
45357;BME280;31092;51.924;21.448;2023-04-09T07:20:23;100925.41;;;10.16;100.00
45357;BME280;31092;51.924;21.448;2023-04-09T07:22:49;100980.25;;;10.71;100.00
45357;BME280;31092;51.924;21.448;2023-04-09T07:25:15;100976.78;;;10.79;100.00
45357;BME280;31092;51.924;21.448;2023-04-09T07:27:41;100977.47;;;10.81;100.00
45357;BME280;31092;51.924;21.448;2023-04-09T07:30:09;100965.47;;;10.75;100.00
45357;BME280;31092;51.924;21.448;2023-04-09T07:32:35;100971.66;;;10.86;100.00
45357;BME280;31092;51.924;21.448;2023-04-09T07:35:03;100921.25;;;10.68;100.00
45357;BME280;31092;51.924;21.448;2023-04-09T07:37:29;100905.78;;;10.70;100.00
45357;BME280;31092;51.924;21.448;2023-04-09T07:39:55;100886.69;;;10.64;100.00
45357;BME280;31092;51.924;21.448;2023-04-09T07:42:20;100954.53;;;11.22;100.00
45357;BME280;31092;51.924;21.448;2023-04-09T07:44:46;100983.38;;;11.58;100.00
45357;BME280;31092;51.924;21.448;2023-04-09T07:47:12;100958.16;;;11.49;100.00
45357;BME280;31092;51.924;21.448;2023-04-09T07:49:38;100916.97;;;11.21;100.00
45357;BME280;31092;51.924;21.448;2023-04-09T07:52:04;100970.81;;;11.48;100.00
45357;BME280;31092;51.924;21.448;2023-04-09T07:54:30;100897.91;;;11.22;100.00
45357;BME280;31092;51.924;21.448;2023-04-09T07:56:56;100947.06;;;11.70;100.00
45357;BME280;31092;51.924;21.448;2023-04-09T07:59:22;100892.00;;;11.63;100.00
45357;BME280;31092;51.924;21.448;2023-04-09T08:01:48;100909.19;;;11.80;100.00
45357;BME280;31092;51.924;21.448;2023-04-09T08:04:13;100965.78;;;12.33;100.00
45357;BME280;31092;51.924;21.448;2023-04-09T08:06:39;100966.13;;;12.64;100.00
45357;BME280;31092;51.924;21.448;2023-04-09T08:09:05;100955.09;;;12.58;100.00
45357;BME280;31092;51.924;21.448;2023-04-09T08:11:30;100982.00;;;12.59;100.00
45357;BME280;31092;51.924;21.448;2023-04-09T08:13:56;100904.00;;;12.04;100.00
45357;BME280;31092;51.924;21.448;2023-04-09T08:16:22;100907.19;;;12.00;100.00
45357;BME280;31092;51.924;21.448;2023-04-09T08:18:52;100900.03;;;11.72;100.00
45357;BME280;31092;51.924;21.448;2023-04-09T08:21:18;100916.28;;;11.81;100.00
45357;BME280;31092;51.924;21.448;2023-04-09T08:23:43;100929.56;;;11.92;100.00
45357;BME280;31092;51.924;21.448;2023-04-09T08:26:09;100969.38;;;12.16;100.00
45357;BME280;31092;51.924;21.448;2023-04-09T08:28:35;100966.84;;;12.14;100.00
45357;BME280;31092;51.924;21.448;2023-04-09T08:31:00;100916.06;;;11.92;100.00
45357;BME280;31092;51.924;21.448;2023-04-09T08:33:26;100950.41;;;12.34;100.00
45357;BME280;31092;51.924;21.448;2023-04-09T08:35:51;100983.19;;;12.99;100.00
45357;BME280;31092;51.924;21.448;2023-04-09T08:38:20;100925.69;;;12.97;100.00
45357;BME280;31092;51.924;21.448;2023-04-09T08:40:45;100982.31;;;13.49;100.00
45357;BME280;31092;51.924;21.448;2023-04-09T08:43:14;100915.59;;;13.07;100.00
45357;BME280;31092;51.924;21.448;2023-04-09T08:45:41;100910.09;;;12.83;100.00
45357;BME280;31092;51.924;21.448;2023-04-09T08:48:08;100938.19;;;12.90;100.00
45357;BME280;31092;51.924;21.448;2023-04-09T08:50:34;100920.69;;;12.68;100.00
45357;BME280;31092;51.924;21.448;2023-04-09T08:53:02;100977.53;;;12.84;100.00
45357;BME280;31092;51.924;21.448;2023-04-09T08:55:29;100923.31;;;12.52;100.00
45357;BME280;31092;51.924;21.448;2023-04-09T08:57:55;100932.00;;;12.63;100.00
45357;BME280;31092;51.924;21.448;2023-04-09T09:00:22;100904.38;;;12.86;100.00
45357;BME280;31092;51.924;21.448;2023-04-09T09:03:07;100925.22;;;13.10;100.00
45357;BME280;31092;51.924;21.448;2023-04-09T09:05:41;100901.16;;;12.82;100.00
45357;BME280;31092;51.924;21.448;2023-04-09T09:08:12;100920.91;;;12.75;100.00
45357;BME280;31092;51.924;21.448;2023-04-09T09:10:44;100919.03;;;12.75;100.00
45357;BME280;31092;51.924;21.448;2023-04-09T09:13:25;100964.06;;;13.01;100.00
45357;BME280;31092;51.924;21.448;2023-04-09T09:18:40;100987.44;;;13.10;100.00
45357;BME280;31092;51.924;21.448;2023-04-09T09:23:36;100978.91;;;12.88;100.00
45357;BME280;31092;51.924;21.448;2023-04-09T09:26:13;100927.22;;;12.49;100.00
45357;BME280;31092;51.924;21.448;2023-04-09T09:28:40;100999.53;;;12.89;100.00
45357;BME280;31092;51.924;21.448;2023-04-09T09:31:10;100921.91;;;12.39;100.00
45357;BME280;31092;51.924;21.448;2023-04-09T09:33:36;100982.34;;;12.64;100.00
45357;BME280;31092;51.924;21.448;2023-04-09T09:36:02;100922.19;;;12.28;100.00
45357;BME280;31092;51.924;21.448;2023-04-09T09:38:30;100978.69;;;12.74;100.00
45357;BME280;31092;51.924;21.448;2023-04-09T09:40:56;100924.88;;;12.54;100.00
45357;BME280;31092;51.924;21.448;2023-04-09T09:43:22;100982.34;;;12.99;100.00
45357;BME280;31092;51.924;21.448;2023-04-09T09:45:49;100965.22;;;12.98;100.00
45357;BME280;31092;51.924;21.448;2023-04-09T09:48:15;100910.94;;;12.75;100.00
45357;BME280;31092;51.924;21.448;2023-04-09T09:50:41;100906.22;;;12.85;100.00
45357;BME280;31092;51.924;21.448;2023-04-09T09:53:09;100989.28;;;13.68;100.00
45357;BME280;31092;51.924;21.448;2023-04-09T09:55:40;100931.75;;;13.50;100.00
45357;BME280;31092;51.924;21.448;2023-04-09T09:58:18;100979.66;;;13.98;100.00
45357;BME280;31092;51.924;21.448;2023-04-09T10:00:48;100893.16;;;13.72;100.00
45357;BME280;31092;51.924;21.448;2023-04-09T10:03:24;100938.16;;;13.89;100.00
45357;BME280;31092;51.924;21.448;2023-04-09T10:05:51;100918.72;;;13.53;100.00
45357;BME280;31092;51.924;21.448;2023-04-09T10:08:19;100997.72;;;13.57;100.00
45357;BME280;31092;51.924;21.448;2023-04-09T10:10:45;100919.56;;;12.87;100.00
45357;BME280;31092;51.924;21.448;2023-04-09T10:13:20;100921.75;;;12.83;100.00
45357;BME280;31092;51.924;21.448;2023-04-09T10:15:50;100953.44;;;12.99;100.00
45357;BME280;31092;51.924;21.448;2023-04-09T10:18:16;100937.16;;;12.91;100.00
45357;BME280;31092;51.924;21.448;2023-04-09T10:20:53;100950.41;;;13.02;100.00
45357;BME280;31092;51.924;21.448;2023-04-09T10:23:30;100914.16;;;12.87;100.00
45357;BME280;31092;51.924;21.448;2023-04-09T10:25:56;100961.44;;;13.17;100.00
45357;BME280;31092;51.924;21.448;2023-04-09T10:28:22;100905.53;;;12.83;100.00
45357;BME280;31092;51.924;21.448;2023-04-09T10:30:48;100984.13;;;13.24;100.00
45357;BME280;31092;51.924;21.448;2023-04-09T10:33:16;100927.53;;;12.88;100.00
45357;BME280;31092;51.924;21.448;2023-04-09T10:35:46;100905.72;;;12.82;100.00
45357;BME280;31092;51.924;21.448;2023-04-09T10:38:14;100924.19;;;13.03;100.00
45357;BME280;31092;51.924;21.448;2023-04-09T10:40:49;100992.81;;;13.52;100.00
45357;BME280;31092;51.924;21.448;2023-04-09T10:43:18;100971.66;;;13.48;100.00
45357;BME280;31092;51.924;21.448;2023-04-09T10:45:47;100871.94;;;12.86;100.00
45357;BME280;31092;51.924;21.448;2023-04-09T10:48:18;100909.84;;;13.10;100.00
45357;BME280;31092;51.924;21.448;2023-04-09T10:50:46;100958.63;;;13.43;100.00
45357;BME280;31092;51.924;21.448;2023-04-09T10:53:22;100985.88;;;13.58;100.00
45357;BME280;31092;51.924;21.448;2023-04-09T10:55:53;100936.13;;;13.34;100.00
45357;BME280;31092;51.924;21.448;2023-04-09T10:58:20;100898.84;;;13.12;100.00
45357;BME280;31092;51.924;21.448;2023-04-09T11:00:47;100979.81;;;13.56;100.00
45357;BME280;31092;51.924;21.448;2023-04-09T11:03:25;100984.84;;;13.59;100.00
45357;BME280;31092;51.924;21.448;2023-04-09T11:06:02;100955.91;;;13.51;100.00
45357;BME280;31092;51.924;21.448;2023-04-09T11:08:32;100957.13;;;13.49;100.00
45357;BME280;31092;51.924;21.448;2023-04-09T11:10:58;100967.25;;;13.47;100.00
45357;BME280;31092;51.924;21.448;2023-04-09T11:13:26;100862.63;;;12.80;100.00
45357;BME280;31092;51.924;21.448;2023-04-09T11:15:54;100964.22;;;13.41;100.00
45357;BME280;31092;51.924;21.448;2023-04-09T11:18:25;100982.66;;;13.46;100.00
45357;BME280;31092;51.924;21.448;2023-04-09T11:21:07;100911.53;;;13.11;100.00
45357;BME280;31092;51.924;21.448;2023-04-09T11:23:50;100909.84;;;13.18;100.00
45357;BME280;31092;51.924;21.448;2023-04-09T11:26:22;100927.44;;;13.23;100.00
45357;BME280;31092;51.924;21.448;2023-04-09T11:28:48;100969.63;;;13.41;100.00
45357;BME280;31092;51.924;21.448;2023-04-09T11:31:14;100912.22;;;13.13;100.00
45357;BME280;31092;51.924;21.448;2023-04-09T11:33:45;100979.81;;;13.56;100.00
45357;BME280;31092;51.924;21.448;2023-04-09T11:36:10;100955.44;;;13.56;100.00
45357;BME280;31092;51.924;21.448;2023-04-09T11:38:47;100914.13;;;13.37;100.00
45357;BME280;31092;51.924;21.448;2023-04-09T11:41:14;100971.19;;;13.85;100.00
45357;BME280;31092;51.924;21.448;2023-04-09T11:43:40;100910.78;;;13.68;100.00
45357;BME280;31092;51.924;21.448;2023-04-09T11:46:05;100960.34;;;14.09;100.00
45357;BME280;31092;51.924;21.448;2023-04-09T11:48:32;100961.00;;;14.11;100.00
45357;BME280;31092;51.924;21.448;2023-04-09T11:50:58;100987.09;;;14.12;100.00
45357;BME280;31092;51.924;21.448;2023-04-09T11:53:29;100974.56;;;14.03;100.00
45357;BME280;31092;51.924;21.448;2023-04-09T11:55:58;100980.28;;;14.08;100.00
45357;BME280;31092;51.924;21.448;2023-04-09T11:58:28;100983.50;;;14.28;100.00
45357;BME280;31092;51.924;21.448;2023-04-09T12:00:54;100960.63;;;14.39;100.00
45357;BME280;31092;51.924;21.448;2023-04-09T12:03:27;100914.22;;;14.34;100.00
45357;BME280;31092;51.924;21.448;2023-04-09T12:05:53;100967.19;;;15.00;100.00
45357;BME280;31092;51.924;21.448;2023-04-09T12:08:22;100921.19;;;14.76;100.00
45357;BME280;31092;51.924;21.448;2023-04-09T12:10:49;100977.66;;;14.72;100.00
45357;BME280;31092;51.924;21.448;2023-04-09T12:13:15;100960.31;;;14.34;100.00
45357;BME280;31092;51.924;21.448;2023-04-09T12:15:41;100969.28;;;14.18;100.00
45357;BME280;31092;51.924;21.448;2023-04-09T12:18:12;100965.41;;;14.12;100.00
45357;BME280;31092;51.924;21.448;2023-04-09T12:20:39;100971.13;;;14.34;100.00
45357;BME280;31092;51.924;21.448;2023-04-09T12:23:07;100934.00;;;14.51;100.00
45357;BME280;31092;51.924;21.448;2023-04-09T12:25:35;100896.59;;;14.30;100.00
45357;BME280;31092;51.924;21.448;2023-04-09T12:28:03;100907.63;;;14.28;100.00
45357;BME280;31092;51.924;21.448;2023-04-09T12:30:29;100961.81;;;14.45;100.00
45357;BME280;31092;51.924;21.448;2023-04-09T12:32:55;100908.03;;;14.09;100.00
45357;BME280;31092;51.924;21.448;2023-04-09T12:35:21;100909.72;;;14.10;100.00
45357;BME280;31092;51.924;21.448;2023-04-09T12:37:48;100970.44;;;14.40;100.00
45357;BME280;31092;51.924;21.448;2023-04-09T12:40:14;100962.00;;;14.27;100.00
45357;BME280;31092;51.924;21.448;2023-04-09T12:42:46;100947.28;;;14.05;100.00
45357;BME280;31092;51.924;21.448;2023-04-09T12:45:13;100887.59;;;13.74;100.00
45357;BME280;31092;51.924;21.448;2023-04-09T12:47:39;100899.94;;;13.84;100.00
45357;BME280;31092;51.924;21.448;2023-04-09T12:50:07;100956.59;;;14.27;100.00